KFOT - Fortuna, California, USA
Updated: Sat, 25-Mar-2017 9:55pm PDT
Clear
Clear
 Wind from SSE
Wind: SSE 3 mph , 6 km/h
Temperature: 45°F , 7°C
Dew Point: 43°F , 6°C
Humidity: 93%
Barometer: 30.13 inHg , 1020.3 hPa
Clouds: Clear
Visibility: 10 miles , 16 km
2017/03/26 04:55 KFOT 260455Z AUTO 16003KT 10SM CLR 07/06 A3013 RMK AO1

Metar display script from Saratoga-Weather.org